X  Sluiten METAR luchtvaart weer gegevens      EBBR Brussels
Temperatuur
7°C Temperatuur
-1°C Dauwpunt
57% Vochtigheid



Wind
10 KM/U
6 MPH
3 M/S
5 KTS



130°
ZO
Huidig weer

Helder Helder
Luchtdruk 1022.92 (hPa) - 30.21 (inHg)
Zicht 6.2 (mijl) - 10 (km)
Vliegveld
Vliegveld code EBBR

Locatie : Brussels
Afstand: 14 (km)

Metar:
EBBR 040720Z 13005KT CAVOK 07/M01 Q1023 NOSIG

Tijd: 04-04-2020 09:20 CEST